sensor_id;sensor_type;location;lat;lon;timestamp;pressure;altitude;pressure_sealevel;temperature;humidity
53719;BME280;39616;48.872;9.390;2023-01-28T00:01:16;98944.34;;;-0.73;97.41
53719;BME280;39616;48.872;9.390;2023-01-28T00:03:50;98945.19;;;-0.79;96.26
53719;BME280;39616;48.872;9.390;2023-01-28T00:06:24;98933.94;;;-0.81;96.74
53719;BME280;39616;48.872;9.390;2023-01-28T00:08:54;98935.97;;;-0.76;97.53
53719;BME280;39616;48.872;9.390;2023-01-28T00:11:25;98928.16;;;-0.78;97.19
53719;BME280;39616;48.872;9.390;2023-01-28T00:13:55;98936.38;;;-0.79;96.71
53719;BME280;39616;48.872;9.390;2023-01-28T00:16:27;98934.13;;;-0.76;97.40
53719;BME280;39616;48.872;9.390;2023-01-28T00:18:57;98937.00;;;-0.77;96.99
53719;BME280;39616;48.872;9.390;2023-01-28T00:21:27;98936.56;;;-0.74;97.03
53719;BME280;39616;48.872;9.390;2023-01-28T00:23:58;98931.44;;;-0.69;96.49
53719;BME280;39616;48.872;9.390;2023-01-28T00:26:28;98932.06;;;-0.74;95.67
53719;BME280;39616;48.872;9.390;2023-01-28T00:28:58;98934.53;;;-0.79;96.44
53719;BME280;39616;48.872;9.390;2023-01-28T00:31:29;98929.81;;;-0.77;97.88
53719;BME280;39616;48.872;9.390;2023-01-28T00:33:59;98924.09;;;-0.74;96.99
53719;BME280;39616;48.872;9.390;2023-01-28T00:36:30;98923.06;;;-0.73;97.19
53719;BME280;39616;48.872;9.390;2023-01-28T00:39:00;98924.09;;;-0.74;97.17
53719;BME280;39616;48.872;9.390;2023-01-28T00:41:31;98924.50;;;-0.70;96.80
53719;BME280;39616;48.872;9.390;2023-01-28T00:44:01;98917.72;;;-0.66;96.29
53719;BME280;39616;48.872;9.390;2023-01-28T00:46:32;98917.31;;;-0.69;96.70
53719;BME280;39616;48.872;9.390;2023-01-28T00:49:02;98911.59;;;-0.73;97.77
53719;BME280;39616;48.872;9.390;2023-01-28T00:51:32;98909.50;;;-0.71;97.31
53719;BME280;39616;48.872;9.390;2023-01-28T00:54:03;98914.25;;;-0.73;96.42
53719;BME280;39616;48.872;9.390;2023-01-28T00:56:33;98918.53;;;-0.72;96.92
53719;BME280;39616;48.872;9.390;2023-01-28T00:59:05;98922.81;;;-0.71;97.28
53719;BME280;39616;48.872;9.390;2023-01-28T01:01:36;98920.56;;;-0.67;97.00
53719;BME280;39616;48.872;9.390;2023-01-28T01:04:06;98917.72;;;-0.66;96.82
53719;BME280;39616;48.872;9.390;2023-01-28T01:06:38;98923.84;;;-0.65;97.50
53719;BME280;39616;48.872;9.390;2023-01-28T01:09:10;98914.84;;;-0.71;96.83
53719;BME280;39616;48.872;9.390;2023-01-28T01:11:40;98922.81;;;-0.71;97.00
53719;BME280;39616;48.872;9.390;2023-01-28T01:14:10;98921.81;;;-0.70;97.61
53719;BME280;39616;48.872;9.390;2023-01-28T01:16:41;98925.88;;;-0.67;97.67
53719;BME280;39616;48.872;9.390;2023-01-28T01:19:11;98931.44;;;-0.69;96.99
53719;BME280;39616;48.872;9.390;2023-01-28T01:21:41;98935.13;;;-0.70;97.63
53719;BME280;39616;48.872;9.390;2023-01-28T01:24:12;98936.16;;;-0.71;97.44
53719;BME280;39616;48.872;9.390;2023-01-28T01:26:42;98933.28;;;-0.69;97.84
53719;BME280;39616;48.872;9.390;2023-01-28T01:29:12;98929.59;;;-0.68;97.86
53719;BME280;39616;48.872;9.390;2023-01-28T01:31:42;98927.75;;;-0.75;97.32
53719;BME280;39616;48.872;9.390;2023-01-28T01:34:14;98938.22;;;-0.73;98.00
53719;BME280;39616;48.872;9.390;2023-01-28T01:36:44;98931.22;;;-0.67;99.11
53719;BME280;39616;48.872;9.390;2023-01-28T01:39:14;98932.66;;;-0.65;99.48
53719;BME280;39616;48.872;9.390;2023-01-28T01:41:45;98924.44;;;-0.63;99.09
53719;BME280;39616;48.872;9.390;2023-01-28T01:44:52;98939.41;;;-0.62;98.95
53719;BME280;39616;48.872;9.390;2023-01-28T01:50:00;98938.97;;;-0.59;99.43
53719;BME280;39616;48.872;9.390;2023-01-28T01:52:34;98934.50;;;-0.65;98.19
53719;BME280;39616;48.872;9.390;2023-01-28T01:55:09;98935.31;;;-0.65;99.25
53719;BME280;39616;48.872;9.390;2023-01-28T01:57:42;98945.56;;;-0.68;98.89
53719;BME280;39616;48.872;9.390;2023-01-28T02:00:13;98940.66;;;-0.71;99.05
53719;BME280;39616;48.872;9.390;2023-01-28T02:02:46;98947.00;;;-0.66;98.89
53719;BME280;39616;48.872;9.390;2023-01-28T02:05:19;98945.78;;;-0.70;99.49
53719;BME280;39616;48.872;9.390;2023-01-28T02:07:55;98945.16;;;-0.72;99.69
53719;BME280;39616;48.872;9.390;2023-01-28T02:11:00;98940.03;;;-0.67;100.00
53719;BME280;39616;48.872;9.390;2023-01-28T02:13:37;98938.19;;;-0.66;100.00
53719;BME280;39616;48.872;9.390;2023-01-28T02:16:09;98937.75;;;-0.63;100.00
53719;BME280;39616;48.872;9.390;2023-01-28T02:18:40;98943.09;;;-0.63;100.00
53719;BME280;39616;48.872;9.390;2023-01-28T02:23:54;98947.59;;;-0.64;100.00
53719;BME280;39616;48.872;9.390;2023-01-28T02:29:45;98942.91;;;-0.68;100.00
53719;BME280;39616;48.872;9.390;2023-01-28T02:32:19;98949.44;;;-0.64;100.00
53719;BME280;39616;48.872;9.390;2023-01-28T02:35:02;98945.97;;;-0.65;100.00
53719;BME280;39616;48.872;9.390;2023-01-28T02:37:57;98946.56;;;-0.63;100.00
53719;BME280;39616;48.872;9.390;2023-01-28T02:40:33;98946.16;;;-0.60;100.00
53719;BME280;39616;48.872;9.390;2023-01-28T02:43:38;98946.38;;;-0.61;100.00
53719;BME280;39616;48.872;9.390;2023-01-28T02:46:31;98944.75;;;-0.62;100.00
53719;BME280;39616;48.872;9.390;2023-01-28T02:49:28;98948.81;;;-0.60;100.00
53719;BME280;39616;48.872;9.390;2023-01-28T02:55:42;98953.56;;;-0.68;100.00
53719;BME280;39616;48.872;9.390;2023-01-28T03:03:49;98960.75;;;-0.69;100.00
53719;BME280;39616;48.872;9.390;2023-01-28T03:06:31;98965.84;;;-0.74;100.00
53719;BME280;39616;48.872;9.390;2023-01-28T03:09:07;98960.53;;;-0.74;100.00
53719;BME280;39616;48.872;9.390;2023-01-28T03:11:58;98968.34;;;-0.79;100.00
53719;BME280;39616;48.872;9.390;2023-01-28T03:14:50;98962.81;;;-0.84;100.00
53719;BME280;39616;48.872;9.390;2023-01-28T03:17:44;98966.28;;;-0.84;100.00
53719;BME280;39616;48.872;9.390;2023-01-28T03:20:39;98962.41;;;-0.88;100.00
53719;BME280;39616;48.872;9.390;2023-01-28T03:23:37;98961.59;;;-0.88;100.00
53719;BME280;39616;48.872;9.390;2023-01-28T03:26:30;98960.75;;;-0.89;100.00
53719;BME280;39616;48.872;9.390;2023-01-28T03:29:25;98965.06;;;-0.94;100.00
53719;BME280;39616;48.872;9.390;2023-01-28T03:32:18;98965.69;;;-0.99;100.00
53719;BME280;39616;48.872;9.390;2023-01-28T03:35:09;98958.94;;;-1.02;100.00
53719;BME280;39616;48.872;9.390;2023-01-28T03:38:03;98957.72;;;-0.99;100.00
53719;BME280;39616;48.872;9.390;2023-01-28T03:40:58;98966.13;;;-0.95;100.00
53719;BME280;39616;48.872;9.390;2023-01-28T03:43:29;98967.75;;;-0.94;100.00
53719;BME280;39616;48.872;9.390;2023-01-28T03:46:00;98974.50;;;-0.92;100.00
53719;BME280;39616;48.872;9.390;2023-01-28T03:48:31;98982.50;;;-0.92;100.00
53719;BME280;39616;48.872;9.390;2023-01-28T03:51:01;98986.56;;;-0.96;100.00
53719;BME280;39616;48.872;9.390;2023-01-28T03:53:31;98980.25;;;-0.95;100.00
53719;BME280;39616;48.872;9.390;2023-01-28T03:56:02;98988.22;;;-0.95;100.00
53719;BME280;39616;48.872;9.390;2023-01-28T03:58:32;98981.47;;;-1.04;100.00
53719;BME280;39616;48.872;9.390;2023-01-28T04:01:21;98987.41;;;-1.02;100.00
53719;BME280;39616;48.872;9.390;2023-01-28T04:03:51;98984.75;;;-1.02;100.00
53719;BME280;39616;48.872;9.390;2023-01-28T04:06:22;98973.47;;;-1.04;100.00
53719;BME280;39616;48.872;9.390;2023-01-28T04:08:52;98964.66;;;-1.05;100.00
53719;BME280;39616;48.872;9.390;2023-01-28T04:11:24;98975.09;;;-1.03;100.00
53719;BME280;39616;48.872;9.390;2023-01-28T04:13:55;98972.44;;;-1.03;100.00
53719;BME280;39616;48.872;9.390;2023-01-28T04:16:25;98980.84;;;-1.00;100.00
53719;BME280;39616;48.872;9.390;2023-01-28T04:18:55;98975.50;;;-1.00;100.00
53719;BME280;39616;48.872;9.390;2023-01-28T04:21:27;98980.66;;;-0.98;100.00
53719;BME280;39616;48.872;9.390;2023-01-28T04:23:57;98985.56;;;-0.95;100.00
53719;BME280;39616;48.872;9.390;2023-01-28T04:26:27;98981.47;;;-0.91;100.00
53719;BME280;39616;48.872;9.390;2023-01-28T04:28:58;98991.91;;;-0.89;100.00
53719;BME280;39616;48.872;9.390;2023-01-28T04:31:28;98994.38;;;-0.88;100.00
53719;BME280;39616;48.872;9.390;2023-01-28T04:33:59;99004.38;;;-0.90;100.00
53719;BME280;39616;48.872;9.390;2023-01-28T04:36:29;99001.13;;;-0.92;100.00
53719;BME280;39616;48.872;9.390;2023-01-28T04:39:00;99006.47;;;-0.92;100.00
53719;BME280;39616;48.872;9.390;2023-01-28T04:41:30;99009.09;;;-0.85;100.00
53719;BME280;39616;48.872;9.390;2023-01-28T04:44:00;99010.53;;;-0.89;100.00
53719;BME280;39616;48.872;9.390;2023-01-28T04:46:31;99019.34;;;-0.89;100.00
53719;BME280;39616;48.872;9.390;2023-01-28T04:49:02;99011.34;;;-0.89;100.00
53719;BME280;39616;48.872;9.390;2023-01-28T04:51:32;99015.03;;;-0.90;100.00
53719;BME280;39616;48.872;9.390;2023-01-28T04:54:02;99008.72;;;-0.95;100.00
53719;BME280;39616;48.872;9.390;2023-01-28T04:56:33;99015.03;;;-0.97;100.00
53719;BME280;39616;48.872;9.390;2023-01-28T04:59:03;99016.69;;;-0.95;100.00
53719;BME280;39616;48.872;9.390;2023-01-28T05:01:33;99018.09;;;-0.93;100.00
53719;BME280;39616;48.872;9.390;2023-01-28T05:04:04;99018.94;;;-0.86;100.00
53719;BME280;39616;48.872;9.390;2023-01-28T05:06:35;99022.44;;;-0.92;100.00
53719;BME280;39616;48.872;9.390;2023-01-28T05:09:05;99019.75;;;-0.85;100.00
53719;BME280;39616;48.872;9.390;2023-01-28T05:11:35;99021.38;;;-0.78;100.00
53719;BME280;39616;48.872;9.390;2023-01-28T05:14:06;99011.34;;;-0.82;100.00
53719;BME280;39616;48.872;9.390;2023-01-28T05:16:36;99014.81;;;-0.82;100.00
53719;BME280;39616;48.872;9.390;2023-01-28T05:19:06;99013.19;;;-0.83;100.00
53719;BME280;39616;48.872;9.390;2023-01-28T05:21:37;99007.66;;;-0.81;100.00
53719;BME280;39616;48.872;9.390;2023-01-28T05:24:07;99005.41;;;-0.78;100.00
53719;BME280;39616;48.872;9.390;2023-01-28T05:26:37;99001.91;;;-0.85;100.00
53719;BME280;39616;48.872;9.390;2023-01-28T05:29:08;99007.66;;;-0.81;100.00
53719;BME280;39616;48.872;9.390;2023-01-28T05:31:38;99012.56;;;-0.85;100.00
53719;BME280;39616;48.872;9.390;2023-01-28T05:34:09;99010.13;;;-0.86;100.00
53719;BME280;39616;48.872;9.390;2023-01-28T05:36:39;99010.53;;;-0.83;100.00
53719;BME280;39616;48.872;9.390;2023-01-28T05:39:12;99007.66;;;-0.81;100.00
53719;BME280;39616;48.872;9.390;2023-01-28T05:41:43;99015.84;;;-0.83;100.00
53719;BME280;39616;48.872;9.390;2023-01-28T05:44:13;99015.03;;;-0.83;100.00
53719;BME280;39616;48.872;9.390;2023-01-28T05:46:43;99014.81;;;-0.82;100.00
53719;BME280;39616;48.872;9.390;2023-01-28T05:49:15;99001.91;;;-0.85;100.00
53719;BME280;39616;48.872;9.390;2023-01-28T05:51:46;99013.19;;;-0.83;100.00
53719;BME280;39616;48.872;9.390;2023-01-28T05:54:17;99015.84;;;-0.83;100.00
53719;BME280;39616;48.872;9.390;2023-01-28T05:56:48;99021.38;;;-0.78;100.00
53719;BME280;39616;48.872;9.390;2023-01-28T05:59:18;99016.91;;;-0.77;100.00
53719;BME280;39616;48.872;9.390;2023-01-28T06:01:48;99020.75;;;-0.66;100.00
53719;BME280;39616;48.872;9.390;2023-01-28T06:04:18;99023.84;;;-0.69;100.00
53719;BME280;39616;48.872;9.390;2023-01-28T06:06:49;99023.03;;;-0.70;100.00
53719;BME280;39616;48.872;9.390;2023-01-28T06:09:19;99031.41;;;-0.66;100.00
53719;BME280;39616;48.872;9.390;2023-01-28T06:11:49;99034.91;;;-0.66;100.00
53719;BME280;39616;48.872;9.390;2023-01-28T06:14:20;99044.53;;;-0.71;100.00
53719;BME280;39616;48.872;9.390;2023-01-28T06:16:50;99050.69;;;-0.71;100.00
53719;BME280;39616;48.872;9.390;2023-01-28T06:19:21;99052.94;;;-0.68;100.00
53719;BME280;39616;48.872;9.390;2023-01-28T06:21:51;99061.16;;;-0.69;100.00
53719;BME280;39616;48.872;9.390;2023-01-28T06:24:21;99059.28;;;-0.69;100.00
53719;BME280;39616;48.872;9.390;2023-01-28T06:26:54;99065.03;;;-0.72;100.00
53719;BME280;39616;48.872;9.390;2023-01-28T06:29:24;99071.78;;;-0.63;100.00
53719;BME280;39616;48.872;9.390;2023-01-28T06:31:55;99076.31;;;-0.70;100.00
53719;BME280;39616;48.872;9.390;2023-01-28T06:34:25;99069.31;;;-0.71;100.00
53719;BME280;39616;48.872;9.390;2023-01-28T06:36:55;99076.69;;;-0.66;100.00
53719;BME280;39616;48.872;9.390;2023-01-28T06:39:26;99075.47;;;-0.70;100.00
53719;BME280;39616;48.872;9.390;2023-01-28T06:41:58;99074.63;;;-0.78;100.00
53719;BME280;39616;48.872;9.390;2023-01-28T06:44:29;99087.78;;;-0.69;100.00
53719;BME280;39616;48.872;9.390;2023-01-28T06:47:01;99089.22;;;-0.74;100.00
53719;BME280;39616;48.872;9.390;2023-01-28T06:49:32;99091.88;;;-0.74;100.00
53719;BME280;39616;48.872;9.390;2023-01-28T06:52:02;99087.38;;;-0.73;100.00
53719;BME280;39616;48.872;9.390;2023-01-28T06:54:33;99095.78;;;-0.69;100.00
53719;BME280;39616;48.872;9.390;2023-01-28T06:57:03;99098.03;;;-0.73;100.00
53719;BME280;39616;48.872;9.390;2023-01-28T06:59:34;99098.44;;;-0.69;100.00
53719;BME280;39616;48.872;9.390;2023-01-28T07:02:04;99092.66;;;-0.66;100.00
53719;BME280;39616;48.872;9.390;2023-01-28T07:04:34;99093.53;;;-0.66;100.00
53719;BME280;39616;48.872;9.390;2023-01-28T07:07:05;99098.63;;;-0.64;100.00
53719;BME280;39616;48.872;9.390;2023-01-28T07:09:36;99100.06;;;-0.55;100.00
53719;BME280;39616;48.872;9.390;2023-01-28T07:12:06;99101.69;;;-0.61;100.00
53719;BME280;39616;48.872;9.390;2023-01-28T07:14:36;99100.47;;;-0.58;100.00
53719;BME280;39616;48.872;9.390;2023-01-28T07:17:06;99105.00;;;-0.59;100.00
53719;BME280;39616;48.872;9.390;2023-01-28T07:19:37;99106.22;;;-0.55;100.00
53719;BME280;39616;48.872;9.390;2023-01-28T07:22:07;99111.56;;;-0.55;100.00
53719;BME280;39616;48.872;9.390;2023-01-28T07:24:37;99112.38;;;-0.54;100.00
53719;BME280;39616;48.872;9.390;2023-01-28T07:27:08;99115.44;;;-0.57;100.00
53719;BME280;39616;48.872;9.390;2023-01-28T07:29:38;99110.72;;;-0.55;100.00
53719;BME280;39616;48.872;9.390;2023-01-28T07:32:08;99114.63;;;-0.51;100.00
53719;BME280;39616;48.872;9.390;2023-01-28T07:34:38;99119.31;;;-0.46;100.00
53719;BME280;39616;48.872;9.390;2023-01-28T07:37:12;99119.72;;;-0.50;100.00
53719;BME280;39616;48.872;9.390;2023-01-28T07:39:42;99115.63;;;-0.45;100.00
53719;BME280;39616;48.872;9.390;2023-01-28T07:42:12;99118.09;;;-0.44;100.00
53719;BME280;39616;48.872;9.390;2023-01-28T07:44:43;99120.78;;;-0.44;100.00
53719;BME280;39616;48.872;9.390;2023-01-28T07:47:13;99123.00;;;-0.41;100.00
53719;BME280;39616;48.872;9.390;2023-01-28T07:49:44;99121.78;;;-0.38;100.00
53719;BME280;39616;48.872;9.390;2023-01-28T07:52:14;99123.41;;;-0.31;100.00
53719;BME280;39616;48.872;9.390;2023-01-28T07:54:44;99127.72;;;-0.30;100.00
53719;BME280;39616;48.872;9.390;2023-01-28T07:57:15;99129.78;;;-0.25;100.00
53719;BME280;39616;48.872;9.390;2023-01-28T07:59:52;99132.03;;;-0.29;100.00
53719;BME280;39616;48.872;9.390;2023-01-28T08:02:22;99134.28;;;-0.26;100.00
53719;BME280;39616;48.872;9.390;2023-01-28T08:04:52;99138.59;;;-0.25;100.00
53719;BME280;39616;48.872;9.390;2023-01-28T08:07:23;99140.00;;;-0.15;100.00
53719;BME280;39616;48.872;9.390;2023-01-28T08:09:53;99136.09;;;-0.13;100.00
53719;BME280;39616;48.872;9.390;2023-01-28T08:12:23;99140.00;;;-0.09;100.00
53719;BME280;39616;48.872;9.390;2023-01-28T08:14:53;99142.47;;;-0.07;100.00
53719;BME280;39616;48.872;9.390;2023-01-28T08:17:24;99150.25;;;-0.06;100.00
53719;BME280;39616;48.872;9.390;2023-01-28T08:19:54;99148.41;;;0.02;100.00
53719;BME280;39616;48.872;9.390;2023-01-28T08:22:25;99144.50;;;-0.03;100.00
53719;BME280;39616;48.872;9.390;2023-01-28T08:24:56;99152.09;;;0.01;100.00
53719;BME280;39616;48.872;9.390;2023-01-28T08:27:26;99146.31;;;0.04;100.00
53719;BME280;39616;48.872;9.390;2023-01-28T08:29:56;99152.91;;;0.08;100.00
53719;BME280;39616;48.872;9.390;2023-01-28T08:32:28;99157.81;;;0.11;100.00
53719;BME280;39616;48.872;9.390;2023-01-28T08:34:59;99150.66;;;0.11;100.00
53719;BME280;39616;48.872;9.390;2023-01-28T08:37:30;99158.59;;;0.24;100.00
53719;BME280;39616;48.872;9.390;2023-01-28T08:40:00;99157.16;;;0.22;100.00
53719;BME280;39616;48.872;9.390;2023-01-28T08:42:30;99154.53;;;0.15;100.00
53719;BME280;39616;48.872;9.390;2023-01-28T08:45:01;99145.47;;;0.23;100.00
53719;BME280;39616;48.872;9.390;2023-01-28T08:47:31;99154.25;;;0.37;100.00
53719;BME280;39616;48.872;9.390;2023-01-28T08:50:01;99148.91;;;0.37;100.00
53719;BME280;39616;48.872;9.390;2023-01-28T08:52:31;99149.34;;;0.34;100.00
53719;BME280;39616;48.872;9.390;2023-01-28T08:55:02;99154.69;;;0.34;100.00
53719;BME280;39616;48.872;9.390;2023-01-28T08:57:32;99157.34;;;0.34;100.00
53719;BME280;39616;48.872;9.390;2023-01-28T09:00:03;99146.44;;;0.42;100.00
53719;BME280;39616;48.872;9.390;2023-01-28T09:02:34;99154.03;;;0.52;100.00
53719;BME280;39616;48.872;9.390;2023-01-28T09:05:05;99158.09;;;0.54;100.00
53719;BME280;39616;48.872;9.390;2023-01-28T09:07:36;99153.97;;;0.58;100.00
53719;BME280;39616;48.872;9.390;2023-01-28T09:10:08;99155.19;;;0.62;100.00
53719;BME280;39616;48.872;9.390;2023-01-28T09:12:38;99159.03;;;0.73;100.00
53719;BME280;39616;48.872;9.390;2023-01-28T09:15:09;99162.13;;;0.70;100.00
53719;BME280;39616;48.872;9.390;2023-01-28T09:17:39;99159.03;;;0.73;100.00
53719;BME280;39616;48.872;9.390;2023-01-28T09:20:10;99157.38;;;0.79;100.00
53719;BME280;39616;48.872;9.390;2023-01-28T09:22:41;99163.03;;;0.95;98.43
53719;BME280;39616;48.872;9.390;2023-01-28T09:25:12;99166.72;;;1.01;97.66
53719;BME280;39616;48.872;9.390;2023-01-28T09:27:42;99170.97;;;1.15;99.67
53719;BME280;39616;48.872;9.390;2023-01-28T09:30:12;99181.16;;;0.93;97.35
53719;BME280;39616;48.872;9.390;2023-01-28T09:32:43;99181.28;;;1.05;96.67
53719;BME280;39616;48.872;9.390;2023-01-28T09:35:13;99184.47;;;0.89;97.13
53719;BME280;39616;48.872;9.390;2023-01-28T09:37:44;99185.66;;;1.00;97.06
53719;BME280;39616;48.872;9.390;2023-01-28T09:40:41;99191.81;;;1.00;97.03
53719;BME280;39616;48.872;9.390;2023-01-28T09:46:07;99195.97;;;0.89;98.74
53719;BME280;39616;48.872;9.390;2023-01-28T09:48:45;99193.28;;;0.89;97.79
53719;BME280;39616;48.872;9.390;2023-01-28T09:51:28;99199.28;;;0.85;98.41
53719;BME280;39616;48.872;9.390;2023-01-28T09:54:05;99198.03;;;0.81;97.71
53719;BME280;39616;48.872;9.390;2023-01-28T09:56:42;99204.47;;;0.66;100.00
53719;BME280;39616;48.872;9.390;2023-01-28T09:59:18;99208.56;;;0.69;100.00
53719;BME280;39616;48.872;9.390;2023-01-28T10:01:58;99214.28;;;0.72;100.00
53719;BME280;39616;48.872;9.390;2023-01-28T10:07:14;99208.34;;;0.70;100.00
53719;BME280;39616;48.872;9.390;2023-01-28T10:10:15;99209.34;;;0.76;99.78
53719;BME280;39616;48.872;9.390;2023-01-28T10:18:36;99196.00;;;0.76;100.00
53719;BME280;39616;48.872;9.390;2023-01-28T10:21:25;99187.34;;;0.81;100.00
53719;BME280;39616;48.872;9.390;2023-01-28T10:24:04;99186.13;;;0.83;100.00
53719;BME280;39616;48.872;9.390;2023-01-28T10:26:39;99184.53;;;0.69;99.34
53719;BME280;39616;48.872;9.390;2023-01-28T10:29:26;99186.75;;;0.79;100.00
53719;BME280;39616;48.872;9.390;2023-01-28T10:34:31;99182.28;;;0.66;99.39
53719;BME280;39616;48.872;9.390;2023-01-28T10:37:01;99186.34;;;0.82;100.00
53719;BME280;39616;48.872;9.390;2023-01-28T10:39:32;99188.63;;;0.71;98.96
53719;BME280;39616;48.872;9.390;2023-01-28T10:42:29;99181.56;;;0.90;99.32
53719;BME280;39616;48.872;9.390;2023-01-28T10:45:02;99179.22;;;1.07;98.36
53719;BME280;39616;48.872;9.390;2023-01-28T10:47:44;99180.06;;;1.01;96.27
53719;BME280;39616;48.872;9.390;2023-01-28T10:50:22;99178.34;;;1.13;97.68
53719;BME280;39616;48.872;9.390;2023-01-28T10:52:57;99182.50;;;1.09;95.67
53719;BME280;39616;48.872;9.390;2023-01-28T10:55:51;99183.41;;;0.96;96.89
53719;BME280;39616;48.872;9.390;2023-01-28T10:58:23;99183.41;;;0.96;95.39
53719;BME280;39616;48.872;9.390;2023-01-28T11:00:56;99180.50;;;0.98;96.01
53719;BME280;39616;48.872;9.390;2023-01-28T11:03:27;99187.94;;;0.96;95.89
53719;BME280;39616;48.872;9.390;2023-01-28T11:06:00;99190.81;;;0.88;97.36
53719;BME280;39616;48.872;9.390;2023-01-28T11:08:42;99192.88;;;0.86;97.86
53719;BME280;39616;48.872;9.390;2023-01-28T11:11:13;99190.00;;;0.87;96.05
53719;BME280;39616;48.872;9.390;2023-01-28T11:13:51;99192.28;;;0.84;95.97
53719;BME280;39616;48.872;9.390;2023-01-28T11:16:23;99188.34;;;0.93;97.43
53719;BME280;39616;48.872;9.390;2023-01-28T11:19:00;99181.78;;;0.89;97.46
53719;BME280;39616;48.872;9.390;2023-01-28T11:21:33;99182.38;;;0.91;96.08
53719;BME280;39616;48.872;9.390;2023-01-28T11:24:11;99192.47;;;0.89;96.02
53719;BME280;39616;48.872;9.390;2023-01-28T11:26:49;99184.84;;;0.92;96.23
53719;BME280;39616;48.872;9.390;2023-01-28T11:29:26;99189.81;;;0.89;96.41
53719;BME280;39616;48.872;9.390;2023-01-28T11:31:59;99193.94;;;0.85;96.24
53719;BME280;39616;48.872;9.390;2023-01-28T11:34:33;99192.69;;;0.81;97.53
53719;BME280;39616;48.872;9.390;2023-01-28T11:37:12;99195.34;;;0.81;96.33
53719;BME280;39616;48.872;9.390;2023-01-28T11:39:45;99199.28;;;0.78;96.53
53719;BME280;39616;48.872;9.390;2023-01-28T11:42:20;99188.41;;;0.73;97.83
53719;BME280;39616;48.872;9.390;2023-01-28T11:44:50;99200.91;;;0.86;98.40
53719;BME280;39616;48.872;9.390;2023-01-28T11:56:40;99193.88;;;0.91;98.74
53719;BME280;39616;48.872;9.390;2023-01-28T12:01:41;99192.47;;;0.89;99.09
53719;BME280;39616;48.872;9.390;2023-01-28T12:10:00;99189.44;;;0.79;100.00
53719;BME280;39616;48.872;9.390;2023-01-28T12:15:33;99193.31;;;0.83;100.00
53719;BME280;39616;48.872;9.390;2023-01-28T12:21:43;99196.41;;;0.80;100.00
53719;BME280;39616;48.872;9.390;2023-01-28T12:27:15;99201.97;;;0.78;100.00
53719;BME280;39616;48.872;9.390;2023-01-28T12:33:13;99204.50;;;0.60;100.00
53719;BME280;39616;48.872;9.390;2023-01-28T12:38:55;99195.22;;;0.69;100.00
53719;BME280;39616;48.872;9.390;2023-01-28T12:41:32;99200.38;;;0.64;100.00
53719;BME280;39616;48.872;9.390;2023-01-28T12:44:08;99195.22;;;0.62;100.00
53719;BME280;39616;48.872;9.390;2023-01-28T12:46:50;99194.66;;;0.54;100.00
53719;BME280;39616;48.872;9.390;2023-01-28T12:49:33;99182.50;;;0.64;100.00
53719;BME280;39616;48.872;9.390;2023-01-28T12:52:13;99186.41;;;0.55;100.00
53719;BME280;39616;48.872;9.390;2023-01-28T12:54:56;99185.78;;;0.66;100.00
53719;BME280;39616;48.872;9.390;2023-01-28T12:57:30;99187.09;;;0.37;100.00
53719;BME280;39616;48.872;9.390;2023-01-28T13:05:45;99190.63;;;0.18;100.00
53719;BME280;39616;48.872;9.390;2023-01-28T13:08:27;99189.38;;;0.27;100.00
53719;BME280;39616;48.872;9.390;2023-01-28T13:11:00;99191.06;;;0.15;100.00
53719;BME280;39616;48.872;9.390;2023-01-28T13:13:32;99189.81;;;0.17;100.00
53719;BME280;39616;48.872;9.390;2023-01-28T13:16:06;99187.34;;;0.22;100.00
53719;BME280;39616;48.872;9.390;2023-01-28T13:26:42;99185.28;;;0.24;100.00
53719;BME280;39616;48.872;9.390;2023-01-28T13:31:54;99184.63;;;0.42;100.00
53719;BME280;39616;48.872;9.390;2023-01-28T13:37:19;99181.88;;;0.62;100.00
53719;BME280;39616;48.872;9.390;2023-01-28T13:42:38;99190.91;;;0.68;100.00
53719;BME280;39616;48.872;9.390;2023-01-28T13:47:55;99200.78;;;0.61;100.00
53719;BME280;39616;48.872;9.390;2023-01-28T13:50:40;99200.16;;;0.59;100.00
53719;BME280;39616;48.872;9.390;2023-01-28T13:56:04;99198.28;;;0.72;100.00
53719;BME280;39616;48.872;9.390;2023-01-28T14:04:40;99196.13;;;0.94;100.00
53719;BME280;39616;48.872;9.390;2023-01-28T14:10:19;99207.66;;;0.88;100.00
53719;BME280;39616;48.872;9.390;2023-01-28T14:18:38;99218.72;;;0.92;97.92
53719;BME280;39616;48.872;9.390;2023-01-28T14:21:15;99214.44;;;0.91;97.35
53719;BME280;39616;48.872;9.390;2023-01-28T14:23:51;99225.38;;;0.76;97.81
53719;BME280;39616;48.872;9.390;2023-01-28T14:29:32;99224.88;;;0.99;95.54
53719;BME280;39616;48.872;9.390;2023-01-28T14:32:11;99231.09;;;0.86;95.42
53719;BME280;39616;48.872;9.390;2023-01-28T14:34:45;99224.53;;;0.89;94.61
53719;BME280;39616;48.872;9.390;2023-01-28T14:37:18;99231.94;;;0.80;95.59
53719;BME280;39616;48.872;9.390;2023-01-28T14:39:53;99236.28;;;0.75;94.13
53719;BME280;39616;48.872;9.390;2023-01-28T14:42:29;99236.88;;;0.77;95.01
53719;BME280;39616;48.872;9.390;2023-01-28T14:48:01;99238.88;;;0.88;95.49
53719;BME280;39616;48.872;9.390;2023-01-28T14:50:56;99238.22;;;0.99;95.53
53719;BME280;39616;48.872;9.390;2023-01-28T14:59:19;99253.34;;;0.67;95.37
53719;BME280;39616;48.872;9.390;2023-01-28T15:01:55;99257.25;;;0.51;96.97
53719;BME280;39616;48.872;9.390;2023-01-28T15:04:30;99260.78;;;0.45;97.57
53719;BME280;39616;48.872;9.390;2023-01-28T15:07:15;99263.41;;;0.58;97.73
53719;BME280;39616;48.872;9.390;2023-01-28T15:09:47;99266.06;;;0.58;97.96
53719;BME280;39616;48.872;9.390;2023-01-28T15:12:17;99267.75;;;0.53;98.80
53719;BME280;39616;48.872;9.390;2023-01-28T15:14:47;99269.56;;;0.59;98.10
53719;BME280;39616;48.872;9.390;2023-01-28T15:17:23;99271.81;;;0.68;96.96
53719;BME280;39616;48.872;9.390;2023-01-28T15:19:56;99274.13;;;0.52;97.54
53719;BME280;39616;48.872;9.390;2023-01-28T15:22:27;99275.94;;;0.51;97.49
53719;BME280;39616;48.872;9.390;2023-01-28T15:24:57;99282.72;;;0.47;96.51
53719;BME280;39616;48.872;9.390;2023-01-28T15:27:29;99284.97;;;0.50;97.21
53719;BME280;39616;48.872;9.390;2023-01-28T15:30:00;99275.97;;;0.44;96.57
53719;BME280;39616;48.872;9.390;2023-01-28T15:32:31;99281.91;;;0.46;96.01